createdAt,value
2023-03-08T00:03:20.511Z,12.63
2023-03-08T00:08:22.080Z,10.23
2023-03-08T00:13:23.607Z,9.00
2023-03-08T00:18:25.080Z,10.00
2023-03-08T00:23:26.815Z,9.88
2023-03-08T00:28:28.781Z,10.75
2023-03-08T00:33:30.889Z,8.60
2023-03-08T00:38:35.117Z,9.05
2023-03-08T00:43:37.086Z,10.45
2023-03-08T00:48:38.829Z,15.02
2023-03-08T00:53:40.412Z,11.15
2023-03-08T00:58:42.586Z,11.82
2023-03-08T01:03:44.867Z,16.25
2023-03-08T01:08:46.437Z,12.80
2023-03-08T01:13:48.896Z,11.82
2023-03-08T01:18:50.912Z,11.50
2023-03-08T01:23:54.400Z,10.18
2023-03-08T01:28:57.742Z,9.65
2023-03-08T01:33:59.331Z,12.05
2023-03-08T01:39:01.278Z,11.68
2023-03-08T01:44:02.978Z,11.15
2023-03-08T01:49:19.693Z,10.38
2023-03-08T01:54:25.792Z,11.00
2023-03-08T01:59:28.292Z,10.07
2023-03-08T02:04:30.375Z,10.02
2023-03-08T02:09:32.417Z,10.05
2023-03-08T02:14:34.744Z,10.73
2023-03-08T02:19:43.767Z,9.75
2023-03-08T02:24:45.431Z,11.35
2023-03-08T02:29:47.455Z,12.60
2023-03-08T02:34:50.218Z,12.57
2023-03-08T02:39:51.736Z,10.45
2023-03-08T02:44:53.405Z,11.32
2023-03-08T02:49:54.964Z,10.50
2023-03-08T02:54:56.544Z,12.90
2023-03-08T03:00:00.060Z,16.35
2023-03-08T03:05:04.847Z,14.18
2023-03-08T03:10:09.738Z,11.68
2023-03-08T03:15:11.941Z,11.38
2023-03-08T03:20:15.812Z,10.80
2023-03-08T03:25:17.428Z,10.82
2023-03-08T03:30:20.981Z,11.63
2023-03-08T03:35:23.088Z,8.85
2023-03-08T03:40:25.220Z,11.25
2023-03-08T03:45:32.049Z,10.40
2023-03-08T03:50:33.638Z,10.48
2023-03-08T03:55:41.911Z,10.02
2023-03-08T04:00:43.639Z,10.40
2023-03-08T04:05:55.203Z,9.10
2023-03-08T04:11:00.414Z,9.75
2023-03-08T04:16:16.638Z,10.30
2023-03-08T04:21:18.676Z,8.98
2023-03-08T04:26:22.413Z,9.48
2023-03-08T04:31:28.163Z,9.52
2023-03-08T04:36:32.534Z,9.15
2023-03-08T04:41:35.124Z,9.35
2023-03-08T04:46:46.246Z,10.15
2023-03-08T04:51:53.906Z,9.52
2023-03-08T04:56:56.693Z,8.77
2023-03-08T05:02:00.195Z,9.23
2023-03-08T05:07:04.709Z,8.43
2023-03-08T05:12:09.707Z,11.80
2023-03-08T05:17:30.913Z,9.48
2023-03-08T05:22:37.138Z,9.00
2023-03-08T05:27:43.012Z,10.60
2023-03-08T05:32:44.697Z,10.77
2023-03-08T05:37:46.328Z,10.40
2023-03-08T05:42:49.070Z,9.75
2023-03-08T05:47:51.167Z,9.55
2023-03-08T05:52:52.772Z,9.02
2023-03-08T05:57:58.573Z,10.45
2023-03-08T06:03:01.472Z,8.70
2023-03-08T06:08:03.577Z,9.52
2023-03-08T06:13:05.135Z,9.23
2023-03-08T06:18:06.655Z,10.43
2023-03-08T06:23:08.592Z,11.25
2023-03-08T06:28:10.209Z,10.02
2023-03-08T06:33:14.514Z,11.43
2023-03-08T06:38:18.299Z,10.10
2023-03-08T06:43:20.821Z,11.23
2023-03-08T06:48:22.857Z,10.43
2023-03-08T06:53:25.939Z,10.98
2023-03-08T06:58:36.881Z,11.00
2023-03-08T07:03:38.500Z,12.35
2023-03-08T07:08:40.888Z,12.65
2023-03-08T07:13:42.427Z,12.50
2023-03-08T07:18:44.242Z,11.55
2023-03-08T07:23:45.763Z,12.15
2023-03-08T07:28:50.714Z,12.25
2023-03-08T07:33:52.197Z,12.48
2023-03-08T07:38:53.856Z,11.15
2023-03-08T07:43:55.312Z,12.02
2023-03-08T07:48:59.002Z,12.45
2023-03-08T07:54:00.567Z,11.85
2023-03-08T07:59:02.051Z,11.60
2023-03-08T08:04:03.583Z,12.40
2023-03-08T08:09:06.051Z,11.82
2023-03-08T08:14:07.849Z,12.85
2023-03-08T08:19:11.194Z,11.90
2023-03-08T08:24:12.726Z,12.23
2023-03-08T08:29:14.223Z,12.90
2023-03-08T08:34:15.737Z,13.50
2023-03-08T08:39:17.344Z,13.85
2023-03-08T08:44:18.930Z,14.95
2023-03-08T08:49:20.554Z,11.75
2023-03-08T08:54:22.103Z,12.50
2023-03-08T08:59:23.679Z,11.50
2023-03-08T09:04:25.328Z,11.30
2023-03-08T09:09:27.023Z,11.50
2023-03-08T09:14:28.520Z,11.55
2023-03-08T09:19:29.984Z,12.40
2023-03-08T09:24:31.567Z,12.05
2023-03-08T09:29:33.454Z,10.15
2023-03-08T09:34:35.138Z,11.07
2023-03-08T09:39:36.665Z,10.15
2023-03-08T09:45:01.248Z,10.70
2023-03-08T09:50:11.946Z,9.15
2023-03-08T09:55:25.616Z,10.18
2023-03-08T10:00:34.448Z,4.75
2023-03-08T10:06:02.870Z,4.43
2023-03-08T10:11:13.102Z,4.65
2023-03-08T10:16:35.557Z,4.30
2023-03-08T10:21:40.556Z,5.63
2023-03-08T10:26:43.712Z,4.57
2023-03-08T10:31:45.418Z,4.93
2023-03-08T10:36:53.152Z,4.72
2023-03-08T10:41:58.683Z,4.28
2023-03-08T10:47:03.934Z,5.53
2023-03-08T10:52:05.522Z,4.72
2023-03-08T10:57:18.932Z,5.15
2023-03-08T11:02:20.637Z,5.65
2023-03-08T11:07:31.749Z,5.28
2023-03-08T11:12:33.307Z,4.93
2023-03-08T11:17:38.442Z,5.88
2023-03-08T11:23:00.508Z,4.78
2023-03-08T11:28:14.104Z,4.47
2023-03-08T11:33:24.512Z,4.75
2023-03-08T11:38:32.042Z,4.60
2023-03-08T11:44:01.142Z,4.13
2023-03-08T11:49:25.815Z,4.43
2023-03-08T11:54:33.287Z,4.88
2023-03-08T11:59:42.122Z,4.32
2023-03-08T12:05:00.859Z,4.80
2023-03-08T12:10:42.097Z,4.00
2023-03-08T12:15:47.091Z,4.07
2023-03-08T12:20:50.146Z,3.90
2023-03-08T12:26:02.480Z,4.38
2023-03-08T12:31:28.455Z,4.30
2023-03-08T12:36:42.905Z,3.45
2023-03-08T12:41:44.657Z,3.88
2023-03-08T12:47:03.489Z,3.83
2023-03-08T12:52:07.537Z,3.25
2023-03-08T12:57:23.614Z,5.10
2023-03-08T13:02:27.177Z,3.60
2023-03-08T13:07:36.011Z,3.95
2023-03-08T13:13:13.824Z,3.90
2023-03-08T13:18:23.684Z,3.55
2023-03-08T13:23:32.367Z,3.42
2023-03-08T13:28:46.744Z,3.03
2023-03-08T13:33:58.071Z,3.47
2023-03-08T13:39:05.605Z,3.40
2023-03-08T13:44:24.589Z,3.08
2023-03-08T13:49:34.379Z,2.47
2023-03-08T13:54:38.446Z,2.78
2023-03-08T13:59:48.565Z,2.42
2023-03-08T14:04:50.937Z,1.90
2023-03-08T14:09:52.508Z,2.10
2023-03-08T14:15:01.265Z,2.03
2023-03-08T14:20:16.157Z,2.70
2023-03-08T14:25:32.038Z,2.47
2023-03-08T14:30:33.569Z,2.28
2023-03-08T14:35:44.889Z,2.38
2023-03-08T14:40:50.065Z,2.50
2023-03-08T14:46:05.229Z,2.50
2023-03-08T14:51:26.775Z,2.50
2023-03-08T14:56:30.180Z,2.40
2023-03-08T15:01:34.428Z,3.05
2023-03-08T15:06:39.226Z,2.22
2023-03-08T15:11:40.840Z,2.30
2023-03-08T15:16:42.402Z,1.88
2023-03-08T15:21:44.087Z,1.83
2023-03-08T15:26:46.177Z,1.73
2023-03-08T15:31:47.647Z,1.55
2023-03-08T15:36:50.342Z,1.77
2023-03-08T15:41:51.832Z,1.75
2023-03-08T15:46:53.283Z,1.52
2023-03-08T15:51:54.790Z,1.90
2023-03-08T15:56:56.247Z,1.58
2023-03-08T16:01:57.822Z,1.33
2023-03-08T16:06:59.401Z,1.85
2023-03-08T16:12:00.920Z,1.00
2023-03-08T16:17:03.848Z,1.42
2023-03-08T16:22:05.605Z,0.95
2023-03-08T16:27:07.076Z,2.90
2023-03-08T16:32:13.246Z,0.88
2023-03-08T16:37:14.772Z,1.20
2023-03-08T16:42:17.628Z,1.90
2023-03-08T16:47:20.527Z,1.50
2023-03-08T16:52:22.092Z,2.60
2023-03-08T16:57:23.914Z,2.80
2023-03-08T17:02:25.545Z,3.28
2023-03-08T17:07:27.135Z,1.38
2023-03-08T17:12:28.625Z,1.63
2023-03-08T17:17:30.506Z,2.30
2023-03-08T17:22:32.139Z,1.67
2023-03-08T17:27:33.583Z,1.27
2023-03-08T17:32:35.077Z,1.30
2023-03-08T17:37:36.518Z,1.40
2023-03-08T17:42:38.340Z,1.90
2023-03-08T17:47:39.958Z,11.38
2023-03-08T17:52:42.012Z,4.78
2023-03-08T17:57:43.503Z,1.70
2023-03-08T18:02:45.969Z,2.72
2023-03-08T18:07:47.463Z,3.60
2023-03-08T18:12:48.975Z,2.30
2023-03-08T18:17:50.448Z,2.60
2023-03-08T18:22:52.595Z,3.65
2023-03-08T18:27:54.104Z,4.55
2023-03-08T18:32:55.621Z,2.50
2023-03-08T18:37:57.154Z,2.08
2023-03-08T18:42:58.672Z,4.20
2023-03-08T18:48:00.206Z,4.15
2023-03-08T18:53:01.907Z,2.50
2023-03-08T18:58:03.498Z,1.38
2023-03-08T19:03:04.940Z,1.17
2023-03-08T19:08:06.635Z,1.75
2023-03-08T19:13:08.130Z,1.35
2023-03-08T19:18:10.394Z,1.17
2023-03-08T19:23:11.840Z,1.00
2023-03-08T19:28:13.286Z,1.42
2023-03-08T19:33:29.776Z,0.95
2023-03-08T19:38:32.344Z,1.30
2023-03-08T19:43:33.886Z,0.90
2023-03-08T19:48:36.626Z,1.30
2023-03-08T19:53:38.170Z,1.67
2023-03-08T19:58:39.632Z,1.38
2023-03-08T20:03:41.238Z,1.35
2023-03-08T20:08:42.746Z,1.27
2023-03-08T20:13:44.207Z,1.48
2023-03-08T20:18:46.336Z,2.72
2023-03-08T20:23:48.720Z,0.93
2023-03-08T20:28:51.323Z,1.02
2023-03-08T20:33:52.831Z,2.65
2023-03-08T20:38:54.408Z,2.25
2023-03-08T20:43:55.981Z,0.88
2023-03-08T20:48:57.452Z,1.00
2023-03-08T20:53:58.952Z,1.33
2023-03-08T20:59:00.666Z,1.75
2023-03-08T21:04:02.226Z,0.90
2023-03-08T21:09:03.780Z,2.65
2023-03-08T21:14:05.429Z,0.93
2023-03-08T21:19:07.222Z,1.10
2023-03-08T21:24:16.244Z,1.20
2023-03-08T21:29:19.709Z,0.90
2023-03-08T21:34:21.548Z,1.30
2023-03-08T21:39:23.091Z,1.10
2023-03-08T21:44:25.130Z,1.30
2023-03-08T21:49:28.818Z,0.93
2023-03-08T21:54:31.416Z,1.27
2023-03-08T21:59:32.885Z,1.00
2023-03-08T22:04:34.431Z,1.10
2023-03-08T22:09:35.933Z,1.00
2023-03-08T22:14:37.468Z,1.13
2023-03-08T22:19:38.981Z,1.30
2023-03-08T22:24:40.455Z,2.33
2023-03-08T22:29:42.048Z,1.05
2023-03-08T22:34:43.562Z,0.93
2023-03-08T22:39:45.195Z,1.00
2023-03-08T22:44:46.674Z,1.38
2023-03-08T22:49:50.214Z,0.75
2023-03-08T22:54:51.745Z,1.27
2023-03-08T22:59:57.950Z,1.35
2023-03-08T23:04:59.425Z,1.20
2023-03-08T23:10:00.878Z,1.10
2023-03-08T23:15:02.761Z,1.00
2023-03-08T23:20:04.597Z,0.93
2023-03-08T23:25:06.715Z,0.80
2023-03-08T23:30:09.626Z,0.95
2023-03-08T23:35:12.486Z,0.70
2023-03-08T23:40:14.663Z,1.42
2023-03-08T23:45:16.207Z,0.68
2023-03-08T23:50:17.757Z,0.77
2023-03-08T23:55:19.229Z,0.60
